CheckWX is a tool to help pilots better visualize weather data.  It is not intended as a substitute for an official pre-flight weather briefing.

17:05:34 UTC

NWWE TAF
Île des Pins Airport
Île des Pins, New Caledonia
TAF AMD NWWE 180747Z 1807/1906 VRB02KT 9999 SCT050 PROB40 TEMPO 1808/1820 1500 BR

Jun-18@
07:00 UTC

Jun-18 @ 07:00 UTC

Jun-19@
06:00 UTC

Jun-19 @ 06:00 UTC

TAF AMD NWWE 180747Z 1807/1906 VRB02KT 9999 SCT050
Wind
  • Variable at 2 KTS
Cloud Levels
  • Scattered at 5,000' AGL

Jun-18@
08:00 UTC

Jun-18 @ 08:00 UTC

Jun-18@
20:00 UTC

Jun-18 @ 20:00 UTC

PROB40 TEMPO 1808/1820 1500 BR

Temporary - 40% Likelihood

Temporary - 40% Likelihood during this time.

Conditions
Mist